sensor_id;sensor_type;location;lat;lon;timestamp;pressure;altitude;pressure_sealevel;temperature;humidity
52855;BME280;38719;51.418;7.286;2023-04-01T00:02:04;97610.59;;;10.59;77.87
52855;BME280;38719;51.418;7.286;2023-04-01T00:04:31;97598.50;;;10.55;77.74
52855;BME280;38719;51.418;7.286;2023-04-01T00:06:59;97600.06;;;10.58;77.87
52855;BME280;38719;51.418;7.286;2023-04-01T00:09:27;97601.38;;;10.63;77.89
52855;BME280;38719;51.418;7.286;2023-04-01T00:11:55;97593.63;;;10.60;77.80
52855;BME280;38719;51.418;7.286;2023-04-01T00:14:24;97591.97;;;10.59;77.47
52855;BME280;38719;51.418;7.286;2023-04-01T00:16:52;97595.47;;;10.60;78.10
52855;BME280;38719;51.418;7.286;2023-04-01T00:19:20;97590.66;;;10.54;77.92
52855;BME280;38719;51.418;7.286;2023-04-01T00:21:47;97584.91;;;10.70;77.97
52855;BME280;38719;51.418;7.286;2023-04-01T00:24:15;97591.25;;;10.57;78.34
52855;BME280;38719;51.418;7.286;2023-04-01T00:26:42;97598.72;;;10.63;78.17
52855;BME280;38719;51.418;7.286;2023-04-01T00:29:10;97592.94;;;10.58;78.34
52855;BME280;38719;51.418;7.286;2023-04-01T00:31:39;97594.97;;;10.66;77.98
52855;BME280;38719;51.418;7.286;2023-04-01T00:34:07;97590.16;;;10.60;78.51
52855;BME280;38719;51.418;7.286;2023-04-01T00:36:34;97587.44;;;10.71;77.66
52855;BME280;38719;51.418;7.286;2023-04-01T00:39:02;97587.69;;;10.68;78.16
52855;BME280;38719;51.418;7.286;2023-04-01T00:41:29;97591.19;;;10.69;77.68
52855;BME280;38719;51.418;7.286;2023-04-01T00:44:15;97588.53;;;10.69;78.16
52855;BME280;38719;51.418;7.286;2023-04-01T00:46:46;97592.44;;;10.64;78.31
52855;BME280;38719;51.418;7.286;2023-04-01T00:49:15;97581.84;;;10.53;78.44
52855;BME280;38719;51.418;7.286;2023-04-01T00:51:45;97580.31;;;10.60;78.75
52855;BME280;38719;51.418;7.286;2023-04-01T00:54:16;97577.66;;;10.60;78.17
52855;BME280;38719;51.418;7.286;2023-04-01T00:56:46;97578.66;;;10.59;78.58
52855;BME280;38719;51.418;7.286;2023-04-01T00:59:19;97575.50;;;10.54;78.10
52855;BME280;38719;51.418;7.286;2023-04-01T01:01:49;97579.78;;;10.45;78.72
52855;BME280;38719;51.418;7.286;2023-04-01T01:04:22;97574.56;;;10.55;78.69
52855;BME280;38719;51.418;7.286;2023-04-01T01:06:54;97586.06;;;10.44;79.10
52855;BME280;38719;51.418;7.286;2023-04-01T01:09:38;97581.63;;;10.33;79.88
52855;BME280;38719;51.418;7.286;2023-04-01T01:12:11;97581.91;;;10.19;80.05
52855;BME280;38719;51.418;7.286;2023-04-01T01:15:02;97581.41;;;10.25;80.17
52855;BME280;38719;51.418;7.286;2023-04-01T01:17:44;97579.91;;;10.44;79.96
52855;BME280;38719;51.418;7.286;2023-04-01T01:23:42;97581.78;;;10.64;79.03
52855;BME280;38719;51.418;7.286;2023-04-01T01:26:35;97563.53;;;10.60;78.86
52855;BME280;38719;51.418;7.286;2023-04-01T01:29:14;97568.63;;;10.52;78.64
52855;BME280;38719;51.418;7.286;2023-04-01T01:31:50;97567.88;;;10.61;79.13
52855;BME280;38719;51.418;7.286;2023-04-01T01:34:31;97562.19;;;10.66;78.64
52855;BME280;38719;51.418;7.286;2023-04-01T01:37:08;97552.97;;;10.70;78.86
52855;BME280;38719;51.418;7.286;2023-04-01T01:39:38;97561.31;;;10.65;78.23
52855;BME280;38719;51.418;7.286;2023-04-01T01:42:11;97561.91;;;10.69;77.47
52855;BME280;38719;51.418;7.286;2023-04-01T01:44:40;97561.53;;;10.73;78.42
52855;BME280;38719;51.418;7.286;2023-04-01T01:47:10;97556.88;;;10.66;78.25
52855;BME280;38719;51.418;7.286;2023-04-01T01:49:39;97554.91;;;10.68;78.19
52855;BME280;38719;51.418;7.286;2023-04-01T01:52:10;97568.09;;;10.69;77.58
52855;BME280;38719;51.418;7.286;2023-04-01T01:54:47;97562.94;;;10.56;78.35
52855;BME280;38719;51.418;7.286;2023-04-01T01:57:15;97556.78;;;10.56;79.08
52855;BME280;38719;51.418;7.286;2023-04-01T01:59:45;97559.75;;;10.62;78.40
52855;BME280;38719;51.418;7.286;2023-04-01T02:02:13;97566.31;;;10.58;78.82
52855;BME280;38719;51.418;7.286;2023-04-01T02:04:43;97571.13;;;10.64;78.48
52855;BME280;38719;51.418;7.286;2023-04-01T02:07:17;97567.63;;;10.85;77.79
52855;BME280;38719;51.418;7.286;2023-04-01T02:09:47;97560.38;;;10.87;77.35
52855;BME280;38719;51.418;7.286;2023-04-01T02:12:17;97570.69;;;10.80;77.74
52855;BME280;38719;51.418;7.286;2023-04-01T02:14:51;97566.72;;;10.75;76.98
52855;BME280;38719;51.418;7.286;2023-04-01T02:17:20;97571.50;;;10.60;77.61
52855;BME280;38719;51.418;7.286;2023-04-01T02:19:51;97565.72;;;10.55;78.02
52855;BME280;38719;51.418;7.286;2023-04-01T02:22:24;97570.47;;;10.51;78.56
52855;BME280;38719;51.418;7.286;2023-04-01T02:24:56;97569.28;;;10.44;78.65
52855;BME280;38719;51.418;7.286;2023-04-01T02:27:24;97559.13;;;10.38;77.97
52855;BME280;38719;51.418;7.286;2023-04-01T02:29:52;97561.88;;;10.47;78.13
52855;BME280;38719;51.418;7.286;2023-04-01T02:32:20;97554.28;;;10.43;78.71
52855;BME280;38719;51.418;7.286;2023-04-01T02:34:48;97563.81;;;10.45;78.24
52855;BME280;38719;51.418;7.286;2023-04-01T02:37:17;97552.81;;;10.50;77.72
52855;BME280;38719;51.418;7.286;2023-04-01T02:39:46;97553.06;;;10.36;78.44
52855;BME280;38719;51.418;7.286;2023-04-01T02:42:14;97554.88;;;10.35;78.74
52855;BME280;38719;51.418;7.286;2023-04-01T02:44:41;97555.56;;;10.16;79.04
52855;BME280;38719;51.418;7.286;2023-04-01T02:47:09;97548.38;;;10.28;78.71
52855;BME280;38719;51.418;7.286;2023-04-01T02:49:36;97554.56;;;10.28;78.67
52855;BME280;38719;51.418;7.286;2023-04-01T02:52:04;97550.91;;;10.29;79.10
52855;BME280;38719;51.418;7.286;2023-04-01T02:54:38;97557.91;;;10.30;78.73
52855;BME280;38719;51.418;7.286;2023-04-01T02:57:07;97562.03;;;10.35;78.55
52855;BME280;38719;51.418;7.286;2023-04-01T02:59:34;97555.50;;;10.39;78.80
52855;BME280;38719;51.418;7.286;2023-04-01T03:02:02;97548.50;;;10.26;78.58
52855;BME280;38719;51.418;7.286;2023-04-01T03:04:29;97557.22;;;10.40;79.09
52855;BME280;38719;51.418;7.286;2023-04-01T03:06:57;97557.91;;;10.42;78.89
52855;BME280;38719;51.418;7.286;2023-04-01T03:09:24;97574.34;;;10.36;78.90
52855;BME280;38719;51.418;7.286;2023-04-01T03:11:52;97564.00;;;10.21;79.50
52855;BME280;38719;51.418;7.286;2023-04-01T03:14:21;97581.66;;;10.22;79.47
52855;BME280;38719;51.418;7.286;2023-04-01T03:16:48;97569.78;;;10.38;80.08
52855;BME280;38719;51.418;7.286;2023-04-01T03:19:16;97568.69;;;10.40;78.71
52855;BME280;38719;51.418;7.286;2023-04-01T03:21:43;97564.78;;;10.33;78.92
52855;BME280;38719;51.418;7.286;2023-04-01T03:24:11;97566.75;;;10.42;78.63
52855;BME280;38719;51.418;7.286;2023-04-01T03:26:38;97564.34;;;10.28;79.47
52855;BME280;38719;51.418;7.286;2023-04-01T03:29:05;97574.59;;;10.32;79.53
52855;BME280;38719;51.418;7.286;2023-04-01T03:31:34;97560.72;;;10.29;79.49
52855;BME280;38719;51.418;7.286;2023-04-01T03:34:02;97562.53;;;10.40;79.30
52855;BME280;38719;51.418;7.286;2023-04-01T03:36:29;97576.31;;;10.33;79.28
52855;BME280;38719;51.418;7.286;2023-04-01T03:38:57;97578.50;;;10.17;79.69
52855;BME280;38719;51.418;7.286;2023-04-01T03:41:24;97577.34;;;10.10;80.31
52855;BME280;38719;51.418;7.286;2023-04-01T03:43:53;97582.41;;;10.02;80.89
52855;BME280;38719;51.418;7.286;2023-04-01T03:46:21;97578.91;;;10.01;80.99
52855;BME280;38719;51.418;7.286;2023-04-01T03:48:50;97578.81;;;10.03;80.82
52855;BME280;38719;51.418;7.286;2023-04-01T03:51:17;97582.41;;;10.02;81.43
52855;BME280;38719;51.418;7.286;2023-04-01T03:53:45;97590.72;;;10.08;80.90
52855;BME280;38719;51.418;7.286;2023-04-01T03:56:12;97587.72;;;10.13;80.49
52855;BME280;38719;51.418;7.286;2023-04-01T03:58:39;97591.56;;;10.20;80.50
52855;BME280;38719;51.418;7.286;2023-04-01T04:01:15;97595.31;;;10.18;80.24
52855;BME280;38719;51.418;7.286;2023-04-01T04:03:43;97597.84;;;10.19;80.22
52855;BME280;38719;51.418;7.286;2023-04-01T04:06:13;97586.06;;;10.33;80.65
52855;BME280;38719;51.418;7.286;2023-04-01T04:08:41;97601.72;;;10.26;79.97
52855;BME280;38719;51.418;7.286;2023-04-01T04:11:09;97602.94;;;10.22;80.21
52855;BME280;38719;51.418;7.286;2023-04-01T04:13:37;97600.16;;;10.24;80.23
52855;BME280;38719;51.418;7.286;2023-04-01T04:16:05;97594.69;;;10.25;80.36
52855;BME280;38719;51.418;7.286;2023-04-01T04:18:32;97603.75;;;10.34;80.17
52855;BME280;38719;51.418;7.286;2023-04-01T04:21:00;97607.94;;;10.48;79.54
52855;BME280;38719;51.418;7.286;2023-04-01T04:23:29;97601.94;;;10.23;80.21
52855;BME280;38719;51.418;7.286;2023-04-01T04:26:01;97610.66;;;10.37;80.22
52855;BME280;38719;51.418;7.286;2023-04-01T04:28:28;97612.34;;;10.38;80.09
52855;BME280;38719;51.418;7.286;2023-04-01T04:30:56;97612.94;;;10.41;79.52
52855;BME280;38719;51.418;7.286;2023-04-01T04:33:24;97613.88;;;10.52;79.79
52855;BME280;38719;51.418;7.286;2023-04-01T04:35:55;97609.03;;;10.57;79.66
52855;BME280;38719;51.418;7.286;2023-04-01T04:38:23;97611.25;;;10.40;79.19
52855;BME280;38719;51.418;7.286;2023-04-01T04:40:53;97609.66;;;10.49;79.75
52855;BME280;38719;51.418;7.286;2023-04-01T04:43:20;97617.75;;;10.47;79.26
52855;BME280;38719;51.418;7.286;2023-04-01T04:45:48;97615.47;;;10.31;79.58
52855;BME280;38719;51.418;7.286;2023-04-01T04:48:16;97611.97;;;10.20;79.79
52855;BME280;38719;51.418;7.286;2023-04-01T04:50:47;97618.41;;;10.17;80.30
52855;BME280;38719;51.418;7.286;2023-04-01T04:53:16;97617.31;;;10.20;80.60
52855;BME280;38719;51.418;7.286;2023-04-01T04:55:44;97619.97;;;10.31;79.84
52855;BME280;38719;51.418;7.286;2023-04-01T04:58:13;97620.78;;;10.31;80.18
52855;BME280;38719;51.418;7.286;2023-04-01T05:00:41;97623.59;;;10.41;79.75
52855;BME280;38719;51.418;7.286;2023-04-01T05:03:10;97629.25;;;10.48;80.28
52855;BME280;38719;51.418;7.286;2023-04-01T05:05:39;97626.81;;;10.56;79.32
52855;BME280;38719;51.418;7.286;2023-04-01T05:08:06;97628.97;;;10.62;79.60
52855;BME280;38719;51.418;7.286;2023-04-01T05:10:34;97630.91;;;10.60;79.14
52855;BME280;38719;51.418;7.286;2023-04-01T05:13:02;97637.41;;;10.68;79.37
52855;BME280;38719;51.418;7.286;2023-04-01T05:15:30;97630.66;;;10.63;78.44
52855;BME280;38719;51.418;7.286;2023-04-01T05:17:58;97639.16;;;10.57;79.21
52855;BME280;38719;51.418;7.286;2023-04-01T05:20:26;97636.72;;;10.66;79.05
52855;BME280;38719;51.418;7.286;2023-04-01T05:22:55;97636.16;;;10.83;78.72
52855;BME280;38719;51.418;7.286;2023-04-01T05:25:23;97641.94;;;10.88;78.39
52855;BME280;38719;51.418;7.286;2023-04-01T05:27:51;97636.47;;;10.90;77.70
52855;BME280;38719;51.418;7.286;2023-04-01T05:30:18;97635.66;;;11.10;77.67
52855;BME280;38719;51.418;7.286;2023-04-01T05:32:47;97635.50;;;10.91;77.64
52855;BME280;38719;51.418;7.286;2023-04-01T05:35:15;97631.88;;;10.92;78.08
52855;BME280;38719;51.418;7.286;2023-04-01T05:37:42;97638.50;;;10.97;77.42
52855;BME280;38719;51.418;7.286;2023-04-01T05:40:10;97642.59;;;10.80;78.17
52855;BME280;38719;51.418;7.286;2023-04-01T05:42:38;97643.41;;;10.81;78.32
52855;BME280;38719;51.418;7.286;2023-04-01T05:45:07;97649.84;;;10.78;77.97
52855;BME280;38719;51.418;7.286;2023-04-01T05:47:35;97654.63;;;10.63;78.21
52855;BME280;38719;51.418;7.286;2023-04-01T05:50:04;97644.44;;;10.69;78.79
52855;BME280;38719;51.418;7.286;2023-04-01T05:52:32;97652.50;;;10.78;78.82
52855;BME280;38719;51.418;7.286;2023-04-01T05:54:59;97649.47;;;10.83;78.93
52855;BME280;38719;51.418;7.286;2023-04-01T05:57:27;97653.09;;;10.82;78.33
52855;BME280;38719;51.418;7.286;2023-04-01T05:59:54;97650.88;;;10.87;78.37
52855;BME280;38719;51.418;7.286;2023-04-01T06:02:22;97655.78;;;11.03;78.15
52855;BME280;38719;51.418;7.286;2023-04-01T06:04:59;97650.72;;;11.00;77.34
52855;BME280;38719;51.418;7.286;2023-04-01T06:07:30;97657.78;;;10.90;78.26
52855;BME280;38719;51.418;7.286;2023-04-01T06:09:59;97658.03;;;10.87;78.24
52855;BME280;38719;51.418;7.286;2023-04-01T06:12:39;97657.00;;;10.78;78.68
52855;BME280;38719;51.418;7.286;2023-04-01T06:15:18;97665.41;;;10.94;78.43
52855;BME280;38719;51.418;7.286;2023-04-01T06:17:56;97671.47;;;10.85;78.76
52855;BME280;38719;51.418;7.286;2023-04-01T06:20:34;97667.41;;;11.02;78.39
52855;BME280;38719;51.418;7.286;2023-04-01T06:23:18;97670.44;;;10.97;77.77
52855;BME280;38719;51.418;7.286;2023-04-01T06:25:55;97673.44;;;10.83;78.98
52855;BME280;38719;51.418;7.286;2023-04-01T06:28:39;97677.88;;;10.94;79.04
52855;BME280;38719;51.418;7.286;2023-04-01T06:31:18;97676.38;;;11.01;78.57
52855;BME280;38719;51.418;7.286;2023-04-01T06:34:01;97675.53;;;11.01;77.53
52855;BME280;38719;51.418;7.286;2023-04-01T06:36:54;97683.25;;;11.04;77.95
52855;BME280;38719;51.418;7.286;2023-04-01T06:39:35;97673.09;;;10.97;77.77
52855;BME280;38719;51.418;7.286;2023-04-01T06:42:22;97685.72;;;10.95;78.33
52855;BME280;38719;51.418;7.286;2023-04-01T06:45:01;97676.59;;;10.77;78.52
52855;BME280;38719;51.418;7.286;2023-04-01T06:47:42;97692.72;;;10.64;79.78
52855;BME280;38719;51.418;7.286;2023-04-01T06:50:19;97687.19;;;10.88;79.81
52855;BME280;38719;51.418;7.286;2023-04-01T06:52:55;97692.03;;;10.94;78.76
52855;BME280;38719;51.418;7.286;2023-04-01T06:55:29;97683.53;;;11.01;78.91
52855;BME280;38719;51.418;7.286;2023-04-01T06:58:04;97690.16;;;11.06;78.52
52855;BME280;38719;51.418;7.286;2023-04-01T07:00:35;97691.00;;;11.07;78.22
52855;BME280;38719;51.418;7.286;2023-04-01T07:03:16;97692.44;;;11.11;79.00
52855;BME280;38719;51.418;7.286;2023-04-01T07:05:45;97693.16;;;11.13;78.01
52855;BME280;38719;51.418;7.286;2023-04-01T07:08:17;97691.41;;;11.23;77.81
52855;BME280;38719;51.418;7.286;2023-04-01T07:10:50;97695.25;;;11.31;77.47
52855;BME280;38719;51.418;7.286;2023-04-01T07:13:24;97702.72;;;11.16;77.62
52855;BME280;38719;51.418;7.286;2023-04-01T07:16:05;97701.78;;;11.05;78.11
52855;BME280;38719;51.418;7.286;2023-04-01T07:18:38;97702.06;;;11.23;78.21
52855;BME280;38719;51.418;7.286;2023-04-01T07:21:17;97701.88;;;11.15;78.64
52855;BME280;38719;51.418;7.286;2023-04-01T07:23:47;97712.53;;;11.04;78.25
52855;BME280;38719;51.418;7.286;2023-04-01T07:26:19;97708.91;;;11.05;78.38
52855;BME280;38719;51.418;7.286;2023-04-01T07:28:48;97707.19;;;11.15;78.56
52855;BME280;38719;51.418;7.286;2023-04-01T07:31:22;97713.97;;;11.19;78.36
52855;BME280;38719;51.418;7.286;2023-04-01T07:33:59;97712.66;;;11.35;78.21
52855;BME280;38719;51.418;7.286;2023-04-01T07:36:33;97717.34;;;11.21;77.68
52855;BME280;38719;51.418;7.286;2023-04-01T07:39:16;97710.41;;;11.30;78.73
52855;BME280;38719;51.418;7.286;2023-04-01T07:41:52;97714.94;;;11.39;77.60
52855;BME280;38719;51.418;7.286;2023-04-01T07:44:28;97726.91;;;11.24;77.75
52855;BME280;38719;51.418;7.286;2023-04-01T07:50:06;97734.28;;;11.20;78.07
52855;BME280;38719;51.418;7.286;2023-04-01T07:52:43;97732.97;;;11.15;78.77
52855;BME280;38719;51.418;7.286;2023-04-01T07:55:15;97734.16;;;11.22;79.20
52855;BME280;38719;51.418;7.286;2023-04-01T07:57:51;97738.75;;;11.20;78.57
52855;BME280;38719;51.418;7.286;2023-04-01T08:00:24;97735.63;;;11.15;78.64
52855;BME280;38719;51.418;7.286;2023-04-01T08:03:04;97733.84;;;11.04;78.81
52855;BME280;38719;51.418;7.286;2023-04-01T08:05:41;97744.59;;;11.25;78.51
52855;BME280;38719;51.418;7.286;2023-04-01T08:08:17;97747.50;;;11.43;78.69
52855;BME280;38719;51.418;7.286;2023-04-01T08:10:49;97741.88;;;11.57;78.13
52855;BME280;38719;51.418;7.286;2023-04-01T08:13:30;97743.75;;;11.67;78.25
52855;BME280;38719;51.418;7.286;2023-04-01T08:16:09;97758.91;;;11.66;77.71
52855;BME280;38719;51.418;7.286;2023-04-01T08:18:46;97752.72;;;11.66;77.20
52855;BME280;38719;51.418;7.286;2023-04-01T08:21:21;97754.09;;;11.60;77.57
52855;BME280;38719;51.418;7.286;2023-04-01T08:23:51;97750.72;;;11.58;76.59
52855;BME280;38719;51.418;7.286;2023-04-01T08:26:26;97756.50;;;11.63;76.54
52855;BME280;38719;51.418;7.286;2023-04-01T08:29:00;97755.19;;;11.57;76.99
52855;BME280;38719;51.418;7.286;2023-04-01T08:31:32;97760.19;;;11.51;77.87
52855;BME280;38719;51.418;7.286;2023-04-01T08:34:03;97770.84;;;11.72;77.75
52855;BME280;38719;51.418;7.286;2023-04-01T08:36:35;97768.53;;;11.57;77.20
52855;BME280;38719;51.418;7.286;2023-04-01T08:39:06;97771.38;;;11.44;77.55
52855;BME280;38719;51.418;7.286;2023-04-01T08:41:50;97779.56;;;11.53;77.16
52855;BME280;38719;51.418;7.286;2023-04-01T08:47:38;97778.38;;;11.45;77.54
52855;BME280;38719;51.418;7.286;2023-04-01T08:50:26;97788.97;;;11.36;77.65
52855;BME280;38719;51.418;7.286;2023-04-01T08:53:05;97782.13;;;11.22;77.33
52855;BME280;38719;51.418;7.286;2023-04-01T08:55:44;97792.91;;;11.20;78.72
52855;BME280;38719;51.418;7.286;2023-04-01T08:58:47;97797.22;;;11.33;78.42
52855;BME280;38719;51.418;7.286;2023-04-01T09:01:24;97797.38;;;11.20;78.67
52855;BME280;38719;51.418;7.286;2023-04-01T09:04:08;97806.03;;;11.01;79.71
52855;BME280;38719;51.418;7.286;2023-04-01T09:06:51;97806.19;;;10.88;80.19
52855;BME280;38719;51.418;7.286;2023-04-01T09:09:36;97806.72;;;11.14;79.63
52855;BME280;38719;51.418;7.286;2023-04-01T09:12:32;97809.31;;;11.37;79.82
52855;BME280;38719;51.418;7.286;2023-04-01T09:15:42;97809.66;;;11.43;78.36
52855;BME280;38719;51.418;7.286;2023-04-01T09:18:41;97814.44;;;11.61;78.61
52855;BME280;38719;51.418;7.286;2023-04-01T09:21:24;97819.19;;;11.57;78.22
52855;BME280;38719;51.418;7.286;2023-04-01T09:24:17;97812.63;;;11.29;78.90
52855;BME280;38719;51.418;7.286;2023-04-01T09:27:11;97822.84;;;11.12;79.58
52855;BME280;38719;51.418;7.286;2023-04-01T09:29:54;97834.84;;;11.39;78.93
52855;BME280;38719;51.418;7.286;2023-04-01T09:35:46;97836.81;;;11.37;79.30
52855;BME280;38719;51.418;7.286;2023-04-01T09:38:29;97836.94;;;11.36;79.11
52855;BME280;38719;51.418;7.286;2023-04-01T09:40:58;97836.00;;;11.25;79.16
52855;BME280;38719;51.418;7.286;2023-04-01T09:43:54;97849.41;;;11.35;78.44
52855;BME280;38719;51.418;7.286;2023-04-01T09:46:36;97844.09;;;11.35;78.97
52855;BME280;38719;51.418;7.286;2023-04-01T09:49:23;97847.84;;;11.33;78.93
52855;BME280;38719;51.418;7.286;2023-04-01T09:52:20;97845.94;;;11.12;79.86
52855;BME280;38719;51.418;7.286;2023-04-01T09:55:03;97844.41;;;11.42;79.01
52855;BME280;38719;51.418;7.286;2023-04-01T09:58:07;97850.06;;;11.27;78.47
52855;BME280;38719;51.418;7.286;2023-04-01T10:00:58;97870.75;;;11.24;79.05
52855;BME280;38719;51.418;7.286;2023-04-01T10:04:01;97866.47;;;11.44;78.36
52855;BME280;38719;51.418;7.286;2023-04-01T10:06:59;97861.91;;;11.23;79.97
52855;BME280;38719;51.418;7.286;2023-04-01T10:10:17;97864.31;;;11.38;79.30
52855;BME280;38719;51.418;7.286;2023-04-01T10:13:17;97866.94;;;11.49;78.59
52855;BME280;38719;51.418;7.286;2023-04-01T10:16:21;97873.78;;;11.74;78.03
52855;BME280;38719;51.418;7.286;2023-04-01T10:19:26;97883.28;;;11.44;78.14
52855;BME280;38719;51.418;7.286;2023-04-01T10:22:11;97879.94;;;11.42;79.13
52855;BME280;38719;51.418;7.286;2023-04-01T10:25:00;97872.53;;;11.46;80.22
52855;BME280;38719;51.418;7.286;2023-04-01T10:28:05;97881.19;;;11.71;79.29
52855;BME280;38719;51.418;7.286;2023-04-01T10:36:52;97885.94;;;11.88;78.59
52855;BME280;38719;51.418;7.286;2023-04-01T10:39:34;97881.59;;;11.87;78.42
52855;BME280;38719;51.418;7.286;2023-04-01T10:48:51;97887.13;;;11.63;79.29
52855;BME280;38719;51.418;7.286;2023-04-01T10:51:50;97888.53;;;11.35;80.99
52855;BME280;38719;51.418;7.286;2023-04-01T10:54:43;97890.22;;;11.36;80.98
52855;BME280;38719;51.418;7.286;2023-04-01T10:57:35;97893.41;;;11.18;81.24
52855;BME280;38719;51.418;7.286;2023-04-01T11:00:39;97891.31;;;11.33;80.87
52855;BME280;38719;51.418;7.286;2023-04-01T11:03:46;97892.66;;;11.16;82.13
52855;BME280;38719;51.418;7.286;2023-04-01T11:07:01;97893.53;;;11.17;82.14
52855;BME280;38719;51.418;7.286;2023-04-01T11:13:30;97913.44;;;11.56;81.30
52855;BME280;38719;51.418;7.286;2023-04-01T11:16:30;97909.56;;;11.49;81.00
52855;BME280;38719;51.418;7.286;2023-04-01T11:19:30;97908.56;;;11.61;80.73
52855;BME280;38719;51.418;7.286;2023-04-01T11:25:11;97913.50;;;11.34;81.38
52855;BME280;38719;51.418;7.286;2023-04-01T11:28:09;97916.91;;;11.13;81.81
52855;BME280;38719;51.418;7.286;2023-04-01T11:30:53;97916.75;;;11.26;82.04
52855;BME280;38719;51.418;7.286;2023-04-01T11:33:33;97917.25;;;11.20;80.72
52855;BME280;38719;51.418;7.286;2023-04-01T11:36:21;97922.16;;;11.47;81.54
52855;BME280;38719;51.418;7.286;2023-04-01T11:39:15;97925.44;;;11.51;79.98
52855;BME280;38719;51.418;7.286;2023-04-01T11:41:56;97930.16;;;11.58;80.39
52855;BME280;38719;51.418;7.286;2023-04-01T11:44:27;97933.16;;;11.65;80.22
52855;BME280;38719;51.418;7.286;2023-04-01T11:47:09;97937.16;;;11.59;79.91
52855;BME280;38719;51.418;7.286;2023-04-01T11:49:55;97947.31;;;11.77;79.72
52855;BME280;38719;51.418;7.286;2023-04-01T11:55:19;97957.28;;;11.64;80.01
52855;BME280;38719;51.418;7.286;2023-04-01T11:58:00;97958.31;;;11.40;81.49
52855;BME280;38719;51.418;7.286;2023-04-01T12:00:58;97958.72;;;11.68;81.29
52855;BME280;38719;51.418;7.286;2023-04-01T12:03:50;97972.63;;;11.83;80.50
52855;BME280;38719;51.418;7.286;2023-04-01T12:06:25;97974.59;;;11.81;79.23
52855;BME280;38719;51.418;7.286;2023-04-01T12:09:02;97973.09;;;11.88;79.42
52855;BME280;38719;51.418;7.286;2023-04-01T12:11:35;97976.25;;;11.82;80.10
52855;BME280;38719;51.418;7.286;2023-04-01T12:14:12;97978.66;;;12.07;79.77
52855;BME280;38719;51.418;7.286;2023-04-01T12:16:55;97976.34;;;11.91;78.95
52855;BME280;38719;51.418;7.286;2023-04-01T12:19:34;97979.63;;;11.95;79.92
52855;BME280;38719;51.418;7.286;2023-04-01T12:22:33;97984.03;;;11.85;79.14
52855;BME280;38719;51.418;7.286;2023-04-01T12:25:17;97985.25;;;11.81;79.28
52855;BME280;38719;51.418;7.286;2023-04-01T12:28:03;97986.19;;;12.02;78.31
52855;BME280;38719;51.418;7.286;2023-04-01T12:30:42;97994.66;;;12.07;78.34
52855;BME280;38719;51.418;7.286;2023-04-01T12:33:28;97996.81;;;12.14;78.86
52855;BME280;38719;51.418;7.286;2023-04-01T12:36:09;97997.59;;;12.04;79.13
52855;BME280;38719;51.418;7.286;2023-04-01T12:38:50;98001.94;;;11.94;79.83
52855;BME280;38719;51.418;7.286;2023-04-01T12:41:27;98004.19;;;11.66;81.49
52855;BME280;38719;51.418;7.286;2023-04-01T12:44:06;98007.84;;;11.54;81.81
52855;BME280;38719;51.418;7.286;2023-04-01T12:46:52;98006.31;;;11.84;80.16
52855;BME280;38719;51.418;7.286;2023-04-01T12:49:31;98005.97;;;12.00;79.04
52855;BME280;38719;51.418;7.286;2023-04-01T12:52:08;98014.59;;;12.24;78.73
52855;BME280;38719;51.418;7.286;2023-04-01T12:54:56;98020.41;;;11.86;80.92
52855;BME280;38719;51.418;7.286;2023-04-01T12:57:59;98020.00;;;12.13;79.03
52855;BME280;38719;51.418;7.286;2023-04-01T13:00:44;98023.75;;;12.11;79.23
52855;BME280;38719;51.418;7.286;2023-04-01T13:06:25;98033.41;;;12.23;79.18
52855;BME280;38719;51.418;7.286;2023-04-01T13:09:04;98039.91;;;12.09;78.56
52855;BME280;38719;51.418;7.286;2023-04-01T13:11:42;98045.72;;;11.80;79.64
52855;BME280;38719;51.418;7.286;2023-04-01T13:14:29;98044.25;;;12.10;80.88
52855;BME280;38719;51.418;7.286;2023-04-01T13:17:07;98052.03;;;12.02;78.98
52855;BME280;38719;51.418;7.286;2023-04-01T13:19:43;98049.25;;;11.69;80.18
52855;BME280;38719;51.418;7.286;2023-04-01T13:22:35;98050.59;;;11.64;80.63
52855;BME280;38719;51.418;7.286;2023-04-01T13:25:15;98053.50;;;11.83;81.09
52855;BME280;38719;51.418;7.286;2023-04-01T13:27:51;98057.84;;;11.96;79.74
52855;BME280;38719;51.418;7.286;2023-04-01T13:30:26;98054.78;;;12.23;79.70
52855;BME280;38719;51.418;7.286;2023-04-01T13:33:00;98057.97;;;12.05;79.00
52855;BME280;38719;51.418;7.286;2023-04-01T13:35:37;98061.97;;;11.88;80.21
52855;BME280;38719;51.418;7.286;2023-04-01T13:38:29;98063.66;;;11.78;80.94
52855;BME280;38719;51.418;7.286;2023-04-01T13:41:01;98064.28;;;11.93;80.67
52855;BME280;38719;51.418;7.286;2023-04-01T13:43:37;98063.53;;;11.91;79.76
52855;BME280;38719;51.418;7.286;2023-04-01T13:46:16;98075.56;;;11.97;79.97
52855;BME280;38719;51.418;7.286;2023-04-01T13:49:11;98077.38;;;11.85;80.19
52855;BME280;38719;51.418;7.286;2023-04-01T13:52:08;98067.31;;;12.00;79.12
52855;BME280;38719;51.418;7.286;2023-04-01T13:54:58;98073.38;;;12.02;80.30
52855;BME280;38719;51.418;7.286;2023-04-01T14:00:40;98084.28;;;11.76;79.23
52855;BME280;38719;51.418;7.286;2023-04-01T14:03:32;98082.34;;;11.55;80.47
52855;BME280;38719;51.418;7.286;2023-04-01T14:06:25;98088.41;;;11.46;80.63
52855;BME280;38719;51.418;7.286;2023-04-01T14:09:10;98096.63;;;11.54;80.60
52855;BME280;38719;51.418;7.286;2023-04-01T14:11:44;98093.88;;;11.67;80.92
52855;BME280;38719;51.418;7.286;2023-04-01T14:14:20;98098.69;;;11.85;79.79
52855;BME280;38719;51.418;7.286;2023-04-01T14:17:14;98095.91;;;11.98;78.99
52855;BME280;38719;51.418;7.286;2023-04-01T14:19:56;98099.56;;;12.08;78.89
52855;BME280;38719;51.418;7.286;2023-04-01T14:22:35;98108.03;;;11.90;79.42
52855;BME280;38719;51.418;7.286;2023-04-01T14:25:25;98115.09;;;12.03;79.32
52855;BME280;38719;51.418;7.286;2023-04-01T14:28:11;98112.31;;;12.04;79.00
52855;BME280;38719;51.418;7.286;2023-04-01T14:31:12;98110.84;;;11.66;79.78
52855;BME280;38719;51.418;7.286;2023-04-01T14:33:53;98121.84;;;11.96;78.48